Time;durP1;ratioP1;P1;durP2;ratioP2;P2;SDS_P1;SDS_P2;PMS_P1;PMS_P2;Temp;Humidity;BMP_temperature;BMP_pressure;BME280_temperature;BME280_humidity;BME280_pressure;Samples;Min_cycle;Max_cycle;Signal;HPM_P1;HPM_P2
2023/03/15 00:00:11;;;;;;;133.50;41.70;;;;;;;3.74;45.65;100259.57;107559;1254;109684;-67
2023/03/15 00:03:02;;;;;;;125.40;40.00;;;;;;;3.65;46.49;100258.77;107528;1254;109692;-66
2023/03/15 00:05:31;;;;;;;127.60;38.10;;;;;;;3.57;46.35;100261.92;107568;1254;99175;-67
2023/03/15 00:08:00;;;;;;;110.30;36.40;;;;;;;3.52;47.08;100257.34;107551;1254;99055;-66
2023/03/15 00:10:31;;;;;;;97.80;30.30;;;;;;;3.48;47.30;100259.88;107594;1254;112471;-66
2023/03/15 00:12:59;;;;;;;65.20;22.70;;;;;;;3.42;48.05;100258.54;107522;1254;109577;-67
2023/03/15 00:15:28;;;;;;;80.00;24.50;;;;;;;3.37;48.69;100257.45;107297;1254;109254;-66
2023/03/15 00:17:56;;;;;;;93.30;30.80;;;;;;;3.30;49.01;100264.80;107521;1254;99220;-66
2023/03/15 00:20:25;;;;;;;79.30;27.10;;;;;;;3.24;49.40;100261.52;107544;1254;99227;-66
2023/03/15 00:22:53;;;;;;;54.50;18.60;;;;;;;3.17;50.17;100263.38;107546;1254;113683;-66
2023/03/15 00:25:22;;;;;;;53.70;16.90;;;;;;;3.09;51.15;100262.27;107567;1254;109697;-66
2023/03/15 00:27:50;;;;;;;33.30;10.50;;;;;;;3.02;51.62;100255.31;107533;1254;109284;-66
2023/03/15 00:30:19;;;;;;;41.60;13.20;;;;;;;2.96;52.25;100249.65;107583;1254;99179;-66
2023/03/15 00:32:48;;;;;;;104.60;29.30;;;;;;;2.90;52.97;100248.82;107355;1254;99783;-67
2023/03/15 00:35:17;;;;;;;104.00;29.90;;;;;;;2.84;53.43;100250.26;107375;1259;112925;-66
2023/03/15 00:37:46;;;;;;;55.60;17.70;;;;;;;2.77;54.16;100238.48;107538;1259;109843;-65
2023/03/15 00:40:16;;;;;;;42.10;11.40;;;;;;;2.71;54.80;100240.11;107534;1254;108313;-66
2023/03/15 00:42:49;;;;;;;47.60;13.30;;;;;;;2.66;55.27;100232.11;107517;1254;99263;-68
2023/03/15 00:45:20;;;;;;;73.80;24.00;;;;;;;2.64;55.32;100231.87;107570;1254;99295;-68
2023/03/15 00:47:53;;;;;;;92.30;28.50;;;;;;;2.60;57.06;100234.41;107530;1254;114566;-65
2023/03/15 00:50:23;;;;;;;74.10;23.80;;;;;;;2.55;57.41;100232.84;107564;1254;110138;-68
2023/03/15 00:52:52;;;;;;;35.50;14.70;;;;;;;2.48;58.15;100232.85;107522;1254;107666;-67
2023/03/15 00:55:21;;;;;;;36.10;12.60;;;;;;;2.42;59.12;100226.05;107525;1254;99170;-66
2023/03/15 00:57:49;;;;;;;71.40;23.00;;;;;;;2.35;59.42;100219.20;107306;1254;99723;-66
2023/03/15 01:00:23;;;;;;;106.40;31.70;;;;;;;2.27;60.05;100214.23;107343;1254;113789;-66
2023/03/15 01:02:53;;;;;;;121.10;37.40;;;;;;;2.20;60.30;100205.77;107524;1254;110105;-67
2023/03/15 01:05:22;;;;;;;84.20;28.40;;;;;;;2.15;60.51;100201.83;107531;1259;108234;-66
2023/03/15 01:07:51;;;;;;;75.80;22.80;;;;;;;2.12;60.27;100199.55;107434;1254;99278;-68
2023/03/15 01:10:20;;;;;;;49.70;14.20;;;;;;;2.12;60.05;100199.41;107579;1254;100090;-66
2023/03/15 01:12:48;;;;;;;23.70;8.60;;;;;;;2.15;59.51;100199.39;107337;1259;112639;-67
2023/03/15 01:15:17;;;;;;;24.00;8.00;;;;;;;2.15;59.61;100199.70;107562;1254;109664;-68
2023/03/15 01:17:45;;;;;;;28.80;8.30;;;;;;;2.15;59.65;100199.22;107256;1259;108044;-65
2023/03/15 01:20:14;;;;;;;21.10;7.30;;;;;;;2.13;60.37;100201.63;107314;1259;99193;-67
2023/03/15 01:22:43;;;;;;;22.50;7.20;;;;;;;2.09;60.43;100201.86;107505;1254;99072;-66
2023/03/15 01:25:11;;;;;;;27.10;6.00;;;;;;;2.06;60.42;100192.89;107482;1254;112610;-67
2023/03/15 01:27:39;;;;;;;11.20;4.50;;;;;;;2.04;59.96;100190.69;107533;1254;109357;-67
2023/03/15 01:30:09;;;;;;;5.20;3.20;;;;;;;2.03;60.11;100188.98;107334;1254;108740;-66
2023/03/15 01:32:37;;;;;;;9.40;3.80;;;;;;;2.01;59.99;100192.61;107379;1254;99294;-68
2023/03/15 01:35:06;;;;;;;11.80;4.40;;;;;;;2.00;59.73;100191.99;107354;1254;99700;-66
2023/03/15 01:37:35;;;;;;;10.00;4.10;;;;;;;2.01;59.81;100187.54;107341;1254;113393;-66
2023/03/15 01:40:05;;;;;;;11.70;4.30;;;;;;;1.99;60.05;100183.79;107564;1254;108812;-66
2023/03/15 01:43:10;;;;;;;8.60;4.40;;;;;;;1.96;60.80;100176.84;107312;1254;108799;-66
2023/03/15 01:46:01;;;;;;;10.00;6.20;;;;;;;1.94;60.47;100178.55;107533;1254;99163;-66
2023/03/15 01:48:43;;;;;;;12.40;5.10;;;;;;;1.91;60.90;100175.22;107527;1254;99064;-66
2023/03/15 01:51:21;;;;;;;;;;;;;;;1.86;61.92;100169.82;107524;1254;113375;-66
2023/03/15 01:53:58;;;;;;;18.50;5.20;;;;;;;1.81;62.54;100167.00;107531;1254;109732;-65
2023/03/15 01:56:30;;;;;;;14.00;5.00;;;;;;;1.77;62.76;100159.84;107322;1254;107725;-66
2023/03/15 01:59:02;;;;;;;6.40;4.40;;;;;;;1.73;63.70;100153.34;107549;1254;99305;-65
2023/03/15 02:01:34;;;;;;;9.80;4.20;;;;;;;1.72;63.81;100149.85;107361;1254;100955;-67
2023/03/15 02:04:08;;;;;;;8.80;4.70;;;;;;;1.71;64.11;100143.36;107327;1254;113221;-68
2023/03/15 02:06:45;;;;;;;10.60;4.40;;;;;;;1.71;64.29;100142.13;107440;1257;110248;-66
2023/03/15 02:09:17;;;;;;;10.50;5.10;;;;;;;1.70;64.37;100143.59;107430;1257;107692;-67
2023/03/15 02:11:47;;;;;;;14.40;5.10;;;;;;;1.70;64.60;100145.58;107450;1254;99176;-66
2023/03/15 02:14:16;;;;;;;9.00;4.50;;;;;;;1.68;64.72;100146.57;107472;1255;99709;-66
2023/03/15 02:16:45;;;;;;;8.50;4.50;;;;;;;1.66;64.60;100146.12;107478;1256;113756;-66
2023/03/15 02:19:34;;;;;;;12.80;3.70;;;;;;;1.67;64.59;100144.48;107323;1257;107830;-66
2023/03/15 02:22:43;;;;;;;10.60;4.50;;;;;;;1.70;63.83;100143.98;107423;1257;108678;-66
2023/03/15 02:25:30;;;;;;;11.70;4.40;;;;;;;1.73;63.45;100146.45;107222;1255;99179;-69
2023/03/15 02:28:00;;;;;;;15.00;4.90;;;;;;;1.77;62.90;100145.86;107437;1254;99686;-67
2023/03/15 02:30:28;;;;;;;10.10;4.50;;;;;;;1.80;62.48;100143.89;107446;1254;112612;-66
2023/03/15 02:33:01;;;;;;;13.20;4.90;;;;;;;1.80;63.20;100146.36;107337;1257;109720;-67
2023/03/15 02:35:31;;;;;;;9.90;4.60;;;;;;;1.77;63.19;100153.30;107305;1255;108771;-66
2023/03/15 02:38:01;;;;;;;9.90;4.80;;;;;;;1.72;63.22;100152.86;107442;1255;99244;-67
2023/03/15 02:40:30;;;;;;;8.70;4.50;;;;;;;1.71;63.70;100149.39;107441;1257;99087;-66
2023/03/15 02:43:04;;;;;;;7.30;4.20;;;;;;;1.68;63.86;100144.82;107425;1257;114078;-67
2023/03/15 02:45:34;;;;;;;13.00;5.50;;;;;;;1.63;63.86;100146.16;107441;1257;108776;-65
2023/03/15 02:48:05;;;;;;;12.30;5.60;;;;;;;1.59;63.66;100148.55;107340;1254;108735;-67
2023/03/15 02:50:33;;;;;;;12.00;5.80;;;;;;;1.58;63.09;100146.63;107433;1257;99277;-66
2023/03/15 02:53:02;;;;;;;8.70;5.50;;;;;;;1.59;62.86;100148.55;107338;1260;99080;-67
2023/03/15 02:55:31;;;;;;;17.10;6.40;;;;;;;1.57;62.77;100145.11;107451;1257;110992;-66
2023/03/15 02:58:01;;;;;;;8.80;4.80;;;;;;;1.54;63.15;100147.73;107360;1254;110015;-66
2023/03/15 03:00:29;;;;;;;14.40;4.70;;;;;;;1.51;63.10;100154.50;107310;1254;108959;-67
2023/03/15 03:02:58;;;;;;;12.50;5.40;;;;;;;1.49;62.55;100153.88;107460;1255;99256;-65
2023/03/15 03:05:26;;;;;;;16.80;6.10;;;;;;;1.51;62.20;100155.74;107402;1255;99633;-67
2023/03/15 03:07:55;;;;;;;10.40;4.90;;;;;;;1.49;63.16;100152.30;107545;1254;113509;-65
2023/03/15 03:10:23;;;;;;;17.00;5.70;;;;;;;1.45;64.03;100158.78;107333;1260;108756;-66
2023/03/15 03:12:55;;;;;;;7.40;4.80;;;;;;;1.45;64.10;100158.95;107485;1257;107785;-66
2023/03/15 03:15:29;;;;;;;10.90;5.40;;;;;;;1.42;65.69;100148.85;107404;1254;99298;-66
2023/03/15 03:17:58;;;;;;;9.90;5.10;;;;;;;1.37;66.17;100143.85;107441;1254;99250;-67
2023/03/15 03:20:27;;;;;;;12.10;5.00;;;;;;;1.35;65.94;100141.11;107344;1254;113593;-67
2023/03/15 03:22:55;;;;;;;12.70;5.00;;;;;;;1.32;66.44;100144.31;107529;1258;108595;-68
2023/03/15 03:25:26;;;;;;;11.80;5.20;;;;;;;1.29;67.28;100144.02;107365;1259;108536;-68
2023/03/15 03:27:55;;;;;;;9.40;4.90;;;;;;;1.29;66.75;100146.66;107508;1254;99177;-66
2023/03/15 03:30:26;;;;;;;8.50;5.00;;;;;;;1.30;66.88;100150.12;107555;1254;99322;-69
2023/03/15 03:32:54;;;;;;;8.80;4.00;;;;;;;1.34;66.26;100150.05;107357;1260;113157;-65
2023/03/15 03:35:22;;;;;;;14.90;5.30;;;;;;;1.38;66.07;100144.86;107378;1254;108856;-69
2023/03/15 03:37:52;;;;;;;10.60;4.80;;;;;;;1.40;66.55;100142.09;107325;1263;108139;-66
2023/03/15 03:40:29;;;;;;;12.10;4.70;;;;;;;1.38;66.98;100146.60;107529;1260;99250;-66
2023/03/15 03:42:58;;;;;;;18.60;6.40;;;;;;;1.36;67.13;100150.28;107317;1254;99796;-66
2023/03/15 03:45:27;;;;;;;20.10;8.10;;;;;;;1.35;67.00;100154.37;107551;1254;114733;-67
2023/03/15 03:47:56;;;;;;;50.40;16.40;;;;;;;1.35;67.72;100160.42;107544;1255;108189;-65
2023/03/15 03:50:25;;;;;;;67.60;21.30;;;;;;;1.31;67.94;100157.84;107400;1254;108620;-66
2023/03/15 03:52:54;;;;;;;74.80;21.90;;;;;;;1.23;68.68;100158.98;107551;1258;99188;-67
2023/03/15 03:55:25;;;;;;;93.60;28.10;;;;;;;1.17;69.16;100148.92;107566;1258;99176;-66
2023/03/15 03:57:54;;;;;;;69.50;21.40;;;;;;;1.10;69.12;100147.18;107548;1254;112677;-67
2023/03/15 04:00:38;;;;;;;44.70;17.60;;;;;;;1.07;69.06;100156.89;107546;1254;109245;-66
2023/03/15 04:03:07;;;;;;;38.60;14.80;;;;;;;1.05;69.32;100154.77;107356;1260;108417;-67
2023/03/15 04:05:38;;;;;;;32.20;10.90;;;;;;;1.03;69.14;100150.61;107402;1259;99219;-66
2023/03/15 04:08:06;;;;;;;14.90;6.90;;;;;;;1.01;69.20;100150.59;107526;1254;99204;-66
2023/03/15 04:10:38;;;;;;;13.40;6.80;;;;;;;0.99;69.82;100150.67;107526;1254;113581;-65
2023/03/15 04:13:07;;;;;;;12.20;6.50;;;;;;;0.99;69.03;100157.77;107465;1254;109268;-67
2023/03/15 04:15:36;;;;;;;10.20;6.40;;;;;;;0.99;69.62;100163.57;107264;1254;108027;-66
2023/03/15 04:18:05;;;;;;;14.60;6.40;;;;;;;0.98;71.29;100162.39;107301;1259;99167;-67
2023/03/15 04:20:45;;;;;;;9.00;6.10;;;;;;;0.94;72.07;100165.40;107540;1254;99791;-67
2023/03/15 04:23:17;;;;;;;14.40;5.90;;;;;;;0.94;72.84;100163.84;107532;1257;112289;-67
2023/03/15 04:26:06;;;;;;;9.20;6.30;;;;;;;0.95;73.09;100163.63;107379;1254;109989;-67
2023/03/15 04:28:56;;;;;;;12.30;6.00;;;;;;;0.98;73.19;100159.56;107508;1257;108520;-68
2023/03/15 04:31:36;;;;;;;27.70;10.30;;;;;;;1.04;73.52;100166.80;107493;1254;99192;-66
2023/03/15 04:34:40;;;;;;;38.30;11.60;;;;;;;1.08;74.75;100169.92;107353;1254;99284;-66
2023/03/15 04:37:19;;;;;;;25.00;9.50;;;;;;;1.13;74.97;100171.75;107529;1255;113977;-67
2023/03/15 04:40:15;;;;;;;19.50;8.90;;;;;;;1.17;75.21;100168.36;107492;1258;110046;-66
2023/03/15 04:42:54;;;;;;;30.60;11.20;;;;;;;1.21;74.09;100167.06;107469;1254;108391;-66
2023/03/15 04:45:32;;;;;;;40.20;13.00;;;;;;;1.29;73.34;100169.74;107488;1257;99134;-67
2023/03/15 04:48:02;;;;;;;20.60;9.50;;;;;;;1.35;74.10;100171.49;107502;1254;99080;-68
2023/03/15 04:50:39;;;;;;;16.90;9.00;;;;;;;1.39;73.97;100171.98;107308;1254;113195;-69
2023/03/15 04:53:28;;;;;;;21.10;7.50;;;;;;;1.46;73.19;100179.55;107122;1254;109719;-66
2023/03/15 04:56:16;;;;;;;9.50;5.90;;;;;;;1.58;72.66;100177.38;107114;1254;107472;-65
2023/03/15 04:59:04;;;;;;;7.10;5.60;;;;;;;1.68;72.80;100177.52;107403;1254;99225;-66
2023/03/15 05:01:51;;;;;;;11.60;5.60;;;;;;;1.73;73.11;100177.04;107424;1260;99699;-66
2023/03/15 05:04:34;;;;;;;11.90;5.70;;;;;;;1.80;72.54;100172.34;107483;1258;113142;-67
2023/03/15 05:07:17;;;;;;;10.80;6.00;;;;;;;1.88;72.55;100174.50;107516;1254;110219;-67
2023/03/15 05:10:04;;;;;;;10.50;5.80;;;;;;;1.96;72.83;100183.39;107334;1254;108077;-66
2023/03/15 05:12:53;;;;;;;12.50;6.60;;;;;;;2.07;72.58;100191.41;107081;1254;99083;-66
2023/03/15 05:15:27;;;;;;;10.90;5.30;;;;;;;2.18;72.19;100191.06;107513;1254;99181;-66
2023/03/15 05:18:34;;;;;;;7.20;4.90;;;;;;;2.31;72.68;100195.58;106870;1261;113031;-67
2023/03/15 05:21:21;;;;;;;9.20;5.20;;;;;;;2.42;72.44;100196.96;106884;1261;109217;-66
2023/03/15 05:24:16;;;;;;;6.90;5.30;;;;;;;2.54;72.26;100188.41;107232;1255;108706;-67
2023/03/15 05:27:13;;;;;;;28.70;7.80;;;;;;;2.69;72.25;100195.64;107399;1254;99214;-67
2023/03/15 05:30:04;;;;;;;11.30;5.70;;;;;;;2.81;72.26;100196.05;107395;1254;99225;-65
2023/03/15 05:32:51;;;;;;;20.80;8.90;;;;;;;2.92;71.97;100196.08;107433;1254;113222;-67
2023/03/15 05:35:55;;;;;;;25.60;9.60;;;;;;;3.03;71.87;100192.86;107260;1254;109760;-65
2023/03/15 05:38:30;;;;;;;41.70;12.30;;;;;;;3.12;71.54;100191.58;107455;1255;108788;-66
2023/03/15 05:41:08;;;;;;;28.90;11.90;;;;;;;3.23;71.20;100178.27;107380;1254;99218;-65
2023/03/15 05:43:55;;;;;;;22.60;9.40;;;;;;;3.34;70.76;100170.98;107289;1255;99709;-65
2023/03/15 05:47:02;;;;;;;14.30;7.10;;;;;;;3.48;70.52;100175.17;106896;1266;113903;-66
2023/03/15 05:49:47;;;;;;;12.40;5.70;;;;;;;3.63;70.07;100171.30;106849;1265;110556;-66
2023/03/15 05:52:45;;;;;;;8.10;5.10;;;;;;;3.82;69.55;100175.11;107160;1254;107660;-67
2023/03/15 05:55:26;;;;;;;12.10;5.00;;;;;;;4.00;68.85;100175.27;107424;1254;99204;-67
2023/03/15 05:58:26;;;;;;;12.30;4.70;;;;;;;4.20;68.23;100178.83;107519;1254;99727;-65
2023/03/15 06:01:10;;;;;;;9.00;5.60;;;;;;;4.35;67.55;100182.59;107457;1255;113097;-65
2023/03/15 06:03:59;;;;;;;12.20;6.20;;;;;;;4.50;66.68;100187.36;107373;1254;109615;-67
2023/03/15 06:06:28;;;;;;;13.70;5.50;;;;;;;4.64;66.07;100181.90;107499;1254;108116;-66
2023/03/15 06:09:00;;;;;;;17.40;5.30;;;;;;;4.75;65.67;100183.06;107444;1254;99166;-68
2023/03/15 06:11:29;;;;;;;11.20;4.70;;;;;;;4.86;65.14;100189.06;107391;1254;99108;-66
2023/03/15 06:13:59;;;;;;;17.10;5.20;;;;;;;4.98;64.53;100184.58;107465;1254;112837;-66
2023/03/15 06:16:34;;;;;;;11.30;4.60;;;;;;;5.09;64.13;100181.23;107365;1254;110879;-66
2023/03/15 06:19:03;;;;;;;6.00;4.70;;;;;;;5.15;63.57;100193.06;107476;1254;107975;-66
2023/03/15 06:21:32;;;;;;;11.70;5.60;;;;;;;5.24;62.97;100194.37;107346;1260;99267;-66
2023/03/15 06:24:01;;;;;;;16.30;6.00;;;;;;;5.29;62.75;100189.39;107406;1254;99208;-66
2023/03/15 06:26:29;;;;;;;16.80;5.40;;;;;;;5.34;62.50;100195.55;107414;1254;113101;-68
2023/03/15 06:29:01;;;;;;;13.10;4.80;;;;;;;5.47;62.30;100197.10;107500;1254;109687;-65
2023/03/15 06:31:29;;;;;;;8.70;4.00;;;;;;;5.55;61.62;100195.09;107445;1254;107288;-68
2023/03/15 06:34:02;;;;;;;13.80;4.40;;;;;;;5.58;61.05;100198.06;107476;1254;99155;-66
2023/03/15 06:36:31;;;;;;;9.20;4.80;;;;;;;5.62;60.93;100196.48;107502;1254;99096;-66
2023/03/15 06:39:01;;;;;;;17.40;5.80;;;;;;;5.69;60.67;100192.60;107503;1254;113009;-66
2023/03/15 06:41:31;;;;;;;8.30;4.40;;;;;;;5.77;60.47;100193.94;107402;1254;110124;-64
2023/03/15 06:44:10;;;;;;;18.10;4.50;;;;;;;5.88;59.87;100195.36;107497;1254;107993;-66
2023/03/15 06:46:39;;;;;;;15.70;4.70;;;;;;;5.93;59.85;100193.17;107375;1259;99256;-67
2023/03/15 06:49:07;;;;;;;10.80;3.90;;;;;;;5.99;60.12;100191.89;107501;1257;99380;-66
2023/03/15 06:51:37;;;;;;;12.70;4.70;;;;;;;6.07;59.96;100188.03;107534;1254;113489;-66
2023/03/15 06:54:05;;;;;;;7.80;4.40;;;;;;;6.12;59.91;100189.60;107388;1254;109513;-67
2023/03/15 06:56:36;;;;;;;14.10;5.00;;;;;;;6.18;59.92;100192.39;107493;1254;107760;-66
2023/03/15 06:59:04;;;;;;;9.80;4.10;;;;;;;6.20;59.79;100189.84;107491;1254;99122;-66
2023/03/15 07:01:33;;;;;;;6.50;4.00;;;;;;;6.24;59.97;100190.06;107507;1257;100499;-65
2023/03/15 07:04:02;;;;;;;18.60;5.80;;;;;;;6.32;59.76;100203.55;107482;1254;113495;-67
2023/03/15 07:06:30;;;;;;;12.00;4.70;;;;;;;6.41;59.09;100204.08;107482;1254;109702;-66
2023/03/15 07:08:59;;;;;;;19.40;5.40;;;;;;;6.49;59.10;100204.85;107486;1254;108064;-67
2023/03/15 07:11:28;;;;;;;20.40;5.10;;;;;;;6.59;58.89;100209.20;107462;1254;99201;-66
2023/03/15 07:13:57;;;;;;;16.90;3.90;;;;;;;6.69;58.23;100215.34;107486;1254;99191;-66
2023/03/15 07:16:26;;;;;;;16.70;4.30;;;;;;;6.77;57.34;100214.17;107488;1254;112691;-67
2023/03/15 07:18:55;;;;;;;14.60;4.80;;;;;;;6.83;57.74;100216.54;107454;1254;109672;-65
2023/03/15 07:21:24;;;;;;;8.10;4.90;;;;;;;6.87;57.56;100211.60;107370;1254;107161;-66
2023/03/15 07:23:53;;;;;;;14.70;5.30;;;;;;;6.89;57.47;100207.70;107477;1254;99196;-69
2023/03/15 07:26:21;;;;;;;10.00;4.30;;;;;;;6.93;57.25;100195.06;107282;1254;99800;-68
2023/03/15 07:28:50;;;;;;;12.00;5.00;;;;;;;7.01;56.82;100195.62;107359;1254;112953;-66
2023/03/15 07:31:18;;;;;;;11.00;5.90;;;;;;;7.09;56.41;100184.68;107446;1254;109658;-65
2023/03/15 07:33:47;;;;;;;13.20;4.60;;;;;;;7.20;55.84;100174.85;107470;1254;108132;-67
2023/03/15 07:36:15;;;;;;;10.10;4.10;;;;;;;7.31;55.25;100179.27;107474;1254;99173;-65
2023/03/15 07:38:43;;;;;;;16.20;5.90;;;;;;;7.42;54.79;100178.49;107482;1257;99251;-67
2023/03/15 07:41:12;;;;;;;12.60;5.10;;;;;;;7.55;54.30;100184.88;107470;1254;112193;-68
2023/03/15 07:43:46;;;;;;;;;;;;;;;7.72;53.58;100178.31;107452;1254;109719;-64
2023/03/15 07:46:17;;;;;;;10.80;4.10;;;;;;;7.85;53.02;100175.91;107441;1254;107594;-65
2023/03/15 07:48:46;;;;;;;7.70;4.30;;;;;;;8.05;52.82;100171.71;107474;1254;99280;-66
2023/03/15 07:51:15;;;;;;;10.20;4.20;;;;;;;8.26;51.36;100177.07;107437;1257;99262;-66
2023/03/15 07:53:44;;;;;;;11.50;4.10;;;;;;;8.42;50.48;100173.82;107499;1254;112881;-65
2023/03/15 07:56:12;;;;;;;10.50;4.40;;;;;;;8.58;50.43;100174.23;107486;1254;109267;-64
2023/03/15 07:58:41;;;;;;;7.80;4.20;;;;;;;8.76;49.60;100174.02;107432;1254;107165;-66
2023/03/15 08:01:09;;;;;;;11.90;4.30;;;;;;;8.90;48.44;100174.35;107441;1254;99196;-64
2023/03/15 08:03:37;;;;;;;7.70;3.60;;;;;;;9.00;47.76;100167.61;107438;1254;99285;-65
2023/03/15 08:06:07;;;;;;;9.00;3.70;;;;;;;9.06;47.97;100159.89;107454;1257;113814;-65
2023/03/15 08:08:35;;;;;;;10.50;3.70;;;;;;;9.19;48.17;100159.38;107458;1254;109737;-66
2023/03/15 08:11:05;;;;;;;12.00;4.10;;;;;;;9.34;47.17;100150.30;107442;1254;108193;-65
2023/03/15 08:13:33;;;;;;;6.00;3.30;;;;;;;9.48;46.99;100139.77;107437;1254;99252;-66
2023/03/15 08:16:01;;;;;;;10.20;3.60;;;;;;;9.59;46.03;100137.59;107506;1254;99064;-66
2023/03/15 08:18:30;;;;;;;8.30;3.00;;;;;;;9.66;46.27;100135.85;107361;1254;114357;-68
2023/03/15 08:20:59;;;;;;;5.20;3.20;;;;;;;9.78;46.36;100136.23;107483;1254;109724;-66
2023/03/15 08:23:29;;;;;;;7.20;2.60;;;;;;;9.89;45.97;100134.96;107320;1253;108732;-66
2023/03/15 08:25:57;;;;;;;9.10;3.40;;;;;;;10.07;45.62;100136.48;107342;1254;99215;-67
2023/03/15 08:28:26;;;;;;;8.10;3.80;;;;;;;10.25;45.60;100133.96;107348;1254;99701;-66
2023/03/15 08:30:55;;;;;;;7.90;3.30;;;;;;;10.46;45.87;100128.23;107459;1254;112147;-66
2023/03/15 08:33:23;;;;;;;17.10;4.10;;;;;;;10.70;44.64;100127.54;107408;1254;109392;-67
2023/03/15 08:35:52;;;;;;;8.00;3.80;;;;;;;10.87;43.99;100118.86;107419;1254;108180;-67
2023/03/15 08:38:21;;;;;;;5.90;3.30;;;;;;;11.10;43.34;100113.84;107455;1254;99575;-67
2023/03/15 08:40:57;;;;;;;13.50;4.00;;;;;;;11.35;41.95;100121.30;107485;1254;99694;-67
2023/03/15 08:43:25;;;;;;;8.70;4.50;;;;;;;11.59;40.66;100120.15;107440;1254;112691;-66
2023/03/15 08:45:54;;;;;;;14.10;3.20;;;;;;;11.77;41.18;100118.84;107491;1254;110124;-67
2023/03/15 08:48:30;;;;;;;8.00;3.10;;;;;;;12.08;40.62;100115.54;107362;1258;108212;-67
2023/03/15 08:51:06;;;;;;;8.70;3.10;;;;;;;12.35;39.48;100114.06;107473;1254;99281;-67
2023/03/15 08:53:34;;;;;;;6.20;3.30;;;;;;;12.53;38.80;100118.41;107493;1254;99060;-70
2023/03/15 08:56:03;;;;;;;8.90;3.10;;;;;;;12.74;38.30;100116.64;107440;1254;113623;-67
2023/03/15 08:58:33;;;;;;;6.70;3.10;;;;;;;12.96;38.07;100119.55;107395;1254;110062;-68
2023/03/15 09:01:03;;;;;;;9.10;3.00;;;;;;;13.19;38.09;100119.02;107434;1254;108678;-67
2023/03/15 09:03:32;;;;;;;7.60;2.80;;;;;;;13.45;38.00;100111.72;107487;1254;99099;-67
2023/03/15 09:06:00;;;;;;;9.20;2.90;;;;;;;13.70;36.85;100112.86;107389;1254;99173;-67
2023/03/15 09:08:28;;;;;;;13.90;3.10;;;;;;;13.92;37.15;100112.86;107489;1254;113615;-66
2023/03/15 09:10:58;;;;;;;10.20;2.30;;;;;;;14.17;34.62;100110.34;107519;1254;109768;-69
2023/03/15 09:13:27;;;;;;;9.90;2.60;;;;;;;14.32;33.36;100106.89;107461;1254;108327;-67
2023/03/15 09:15:56;;;;;;;14.30;3.10;;;;;;;14.45;32.92;100103.31;107398;1254;99563;-67
2023/03/15 09:18:25;;;;;;;8.80;2.80;;;;;;;14.63;33.09;100104.34;107450;1254;99766;-67
2023/03/15 09:20:53;;;;;;;7.10;2.40;;;;;;;14.84;33.01;100104.31;107436;1257;113258;-66
2023/03/15 09:23:24;;;;;;;5.70;2.40;;;;;;;15.07;32.00;100108.23;107469;1254;109905;-67
2023/03/15 09:25:53;;;;;;;9.10;2.40;;;;;;;15.31;32.13;100107.82;107404;1254;109352;-67
2023/03/15 09:28:21;;;;;;;7.80;3.10;;;;;;;15.68;31.80;100108.82;107409;1254;99178;-66
2023/03/15 09:30:50;;;;;;;4.70;2.90;;;;;;;16.17;31.20;100108.27;107450;1254;100862;-66
2023/03/15 09:33:21;;;;;;;9.00;2.50;;;;;;;16.90;30.74;100102.05;107464;1253;114475;-67
2023/03/15 09:35:51;;;;;;;7.30;3.10;;;;;;;17.74;30.41;100098.50;107455;1254;109906;-67
2023/03/15 09:38:20;;;;;;;14.20;3.00;;;;;;;18.55;30.03;100100.89;107466;1254;107181;-66
2023/03/15 09:40:50;;;;;;;12.10;3.30;;;;;;;19.21;28.84;100097.77;107424;1254;99270;-69
2023/03/15 09:43:28;;;;;;;8.20;2.30;;;;;;;19.56;27.08;100107.25;107400;1254;99164;-68
2023/03/15 09:46:10;;;;;;;9.30;1.90;;;;;;;20.13;26.25;100113.23;107423;1254;113487;-66
2023/03/15 09:48:55;;;;;;;10.90;2.40;;;;;;;20.87;26.43;100114.38;107450;1254;110184;-66
2023/03/15 09:51:50;;;;;;;17.50;2.10;;;;;;;21.69;25.19;100114.84;107385;1254;108729;-68
2023/03/15 09:54:28;;;;;;;17.30;2.60;;;;;;;22.26;24.05;100105.39;106523;1254;1204839;-68
2023/03/15 09:57:03;;;;;;;9.00;2.40;;;;;;;22.46;22.71;100102.44;107439;1254;99238;-69
2023/03/15 09:59:35;;;;;;;7.20;2.70;;;;;;;22.44;22.04;100102.17;107478;1257;114217;-69
2023/03/15 10:02:18;;;;;;;4.60;2.10;;;;;;;22.49;22.02;100106.20;107382;1254;109620;-68
2023/03/15 10:04:50;;;;;;;6.70;2.10;;;;;;;22.56;21.37;100104.01;107426;1254;108465;-69
2023/03/15 10:07:19;;;;;;;2.80;1.50;;;;;;;22.70;20.59;100112.73;107422;1254;99221;-70
2023/03/15 10:09:49;;;;;;;11.30;1.90;;;;;;;22.88;20.89;100111.16;107283;1254;99767;-69
2023/03/15 10:12:32;;;;;;;4.40;1.80;;;;;;;23.15;19.51;100111.64;107171;1254;114911;-72
2023/03/15 10:15:23;;;;;;;8.60;1.60;;;;;;;23.08;18.82;100108.45;107477;1254;109275;-69
2023/03/15 10:17:57;;;;;;;4.80;1.30;;;;;;;23.07;18.56;100112.31;107495;1254;108766;-68
2023/03/15 10:20:34;;;;;;;3.90;1.80;;;;;;;23.04;19.19;100105.72;107413;1254;99629;-69
2023/03/15 10:23:16;;;;;;;3.90;1.70;;;;;;;23.04;19.35;100096.77;107439;1254;99713;-69
2023/03/15 10:25:48;;;;;;;6.90;2.00;;;;;;;23.04;20.46;100091.00;107455;1253;113590;-69
2023/03/15 10:28:30;;;;;;;3.70;1.60;;;;;;;23.34;20.80;100090.25;107426;1257;109042;-67
2023/03/15 10:31:36;;;;;;;13.30;2.20;;;;;;;23.64;20.30;100092.56;107428;1254;109075;-66
2023/03/15 10:34:14;;;;;;;5.70;1.90;;;;;;;23.90;19.40;100084.04;107426;1254;99174;-66
2023/03/15 10:36:45;;;;;;;5.10;1.90;;;;;;;24.14;19.72;100085.92;107483;1254;99195;-68
2023/03/15 10:39:14;;;;;;;4.10;1.60;;;;;;;24.50;20.06;100081.56;107462;1254;111668;-66
2023/03/15 10:41:46;;;;;;;3.40;1.70;;;;;;;24.96;19.75;100081.21;107475;1254;109926;-68
2023/03/15 10:44:25;;;;;;;20.90;2.20;;;;;;;25.28;18.89;100067.60;107427;1257;107603;-67
2023/03/15 10:47:15;;;;;;;11.60;1.80;;;;;;;25.36;17.94;100065.30;107465;1254;99185;-66
2023/03/15 10:49:57;;;;;;;17.70;2.30;;;;;;;25.50;17.57;100067.72;107466;1254;99156;-68
2023/03/15 10:52:38;;;;;;;6.60;2.90;;;;;;;25.31;17.14;100066.92;107413;1259;112397;-68
2023/03/15 10:55:17;;;;;;;22.50;2.30;;;;;;;25.27;18.06;100061.90;107470;1254;109432;-69
2023/03/15 10:58:01;;;;;;;6.40;1.70;;;;;;;25.46;17.44;100065.38;107435;1254;108725;-66
2023/03/15 11:00:31;;;;;;;9.60;1.70;;;;;;;25.55;16.87;100057.17;107500;1254;99176;-68
2023/03/15 11:03:04;;;;;;;5.30;1.30;;;;;;;25.64;16.97;100061.54;107474;1254;99055;-68
2023/03/15 11:05:39;;;;;;;;;;;;;;;25.79;16.71;100055.85;107518;1254;113049;-66
2023/03/15 11:08:17;;;;;;;8.40;1.80;;;;;;;25.73;16.45;100061.77;107439;1254;109231;-67
2023/03/15 11:10:55;;;;;;;3.60;1.50;;;;;;;25.83;16.60;100061.91;107457;1254;108603;-68
2023/03/15 11:13:23;;;;;;;6.30;1.40;;;;;;;25.77;16.13;100066.83;107453;1254;99211;-66
2023/03/15 11:16:05;;;;;;;6.60;1.20;;;;;;;25.73;16.67;100067.66;107522;1254;100337;-68
2023/03/15 11:18:43;;;;;;;6.80;1.60;;;;;;;26.04;16.61;100062.63;107484;1254;112148;-68
2023/03/15 11:21:14;;;;;;;6.00;1.20;;;;;;;26.41;15.71;100057.14;107486;1257;110758;-65
2023/03/15 11:23:46;;;;;;;4.40;1.40;;;;;;;26.30;15.49;100061.34;107444;1257;108756;-66
2023/03/15 11:26:24;;;;;;;5.10;1.30;;;;;;;25.92;15.77;100058.65;107492;1254;99183;-66
2023/03/15 11:29:12;;;;;;;5.60;1.90;;;;;;;25.54;16.18;100060.73;107465;1254;99717;-66
2023/03/15 11:31:40;;;;;;;8.40;2.10;;;;;;;24.96;16.98;100064.83;107474;1254;113149;-68
2023/03/15 11:34:20;;;;;;;5.70;1.70;;;;;;;24.48;18.01;100055.97;107443;1254;109797;-65
2023/03/15 11:36:55;;;;;;;5.40;1.60;;;;;;;24.07;18.38;100061.34;107457;1253;108457;-66
2023/03/15 11:39:52;;;;;;;14.60;1.60;;;;;;;23.75;18.47;100069.76;107488;1254;99179;-67
2023/03/15 11:42:35;;;;;;;4.80;1.40;;;;;;;23.34;18.73;100072.39;107473;1254;99054;-67